Shandon, California
Current Conditions -  °F | °C
As of 10:53 AM on Thursday 30 Oct 2014 (Local Time) from KPRB Reporting Station
Clear Clear  
Wind Chill: 62°   Ceiling: Unl
Heat Index: 62°   Visibility: 10mi
Dew Point: 39°   Wind: 0mph
Humidity: 43%   Direction: NA
Pressure: 29.99"   Gusts: NA
Location:  35.66°N, 120.38°W
Report Text: KPRB 301753Z AUTO 00000KT 10SM CLR 17/04 A2999 RMK AO2 SLP152 T01670039 10167 20083 50001 TSNO $
Loading
Personal Weather Stations






























Interactive Weather Map
Tropical Storm Tracking
New forecast layout! Learn more

10-Day Weather Forecast

Advertisements
Track Severe Weather on mobile